sensor_id;sensor_type;location;lat;lon;timestamp;pressure;altitude;pressure_sealevel;temperature;humidity
40838;BME280;29632;49.168;9.848;2022-08-18T00:01:14;96565.34;;;26.02;41.75
40838;BME280;29632;49.168;9.848;2022-08-18T00:03:40;96573.19;;;25.92;42.25
40838;BME280;29632;49.168;9.848;2022-08-18T00:06:06;96568.75;;;25.80;42.54
40838;BME280;29632;49.168;9.848;2022-08-18T00:08:32;96576.59;;;25.70;42.95
40838;BME280;29632;49.168;9.848;2022-08-18T00:10:59;96574.31;;;25.57;43.18
40838;BME280;29632;49.168;9.848;2022-08-18T00:13:25;96579.56;;;25.52;43.23
40838;BME280;29632;49.168;9.848;2022-08-18T00:15:51;96578.69;;;25.46;43.73
40838;BME280;29632;49.168;9.848;2022-08-18T00:18:17;96574.56;;;25.38;44.09
40838;BME280;29632;49.168;9.848;2022-08-18T00:20:42;96577.97;;;25.34;44.63
40838;BME280;29632;49.168;9.848;2022-08-18T00:23:08;96566.41;;;25.28;44.72
40838;BME280;29632;49.168;9.848;2022-08-18T00:25:34;96570.00;;;25.22;45.00
40838;BME280;29632;49.168;9.848;2022-08-18T00:28:00;96574.47;;;25.16;44.89
40838;BME280;29632;49.168;9.848;2022-08-18T00:30:26;96567.66;;;25.09;45.44
40838;BME280;29632;49.168;9.848;2022-08-18T00:32:55;96573.69;;;25.04;45.62
40838;BME280;29632;49.168;9.848;2022-08-18T00:35:27;96568.31;;;24.99;45.61
40838;BME280;29632;49.168;9.848;2022-08-18T00:37:55;96572.34;;;25.01;45.44
40838;BME280;29632;49.168;9.848;2022-08-18T00:40:33;96564.81;;;24.98;46.00
40838;BME280;29632;49.168;9.848;2022-08-18T00:43:05;96557.91;;;24.97;45.70
40838;BME280;29632;49.168;9.848;2022-08-18T00:45:35;96552.63;;;24.85;44.95
40838;BME280;29632;49.168;9.848;2022-08-18T00:48:06;96555.84;;;24.87;45.54
40838;BME280;29632;49.168;9.848;2022-08-18T00:51:01;96555.06;;;24.87;46.01
40838;BME280;29632;49.168;9.848;2022-08-18T00:53:37;96553.44;;;24.86;45.92
40838;BME280;29632;49.168;9.848;2022-08-18T00:56:15;96539.56;;;24.84;45.91
40838;BME280;29632;49.168;9.848;2022-08-18T00:58:47;96536.66;;;24.85;46.42
40838;BME280;29632;49.168;9.848;2022-08-18T01:01:16;96536.19;;;24.88;46.35
40838;BME280;29632;49.168;9.848;2022-08-18T01:03:45;96532.69;;;24.88;45.92
40838;BME280;29632;49.168;9.848;2022-08-18T01:06:42;96535.34;;;24.88;46.43
40838;BME280;29632;49.168;9.848;2022-08-18T01:09:11;96526.66;;;24.93;46.08
40838;BME280;29632;49.168;9.848;2022-08-18T01:11:38;96519.78;;;24.97;46.24
40838;BME280;29632;49.168;9.848;2022-08-18T01:14:07;96515.38;;;25.02;46.43
40838;BME280;29632;49.168;9.848;2022-08-18T01:16:33;96513.03;;;25.06;46.52
40838;BME280;29632;49.168;9.848;2022-08-18T01:19:19;96507.78;;;25.11;46.25
40838;BME280;29632;49.168;9.848;2022-08-18T01:22:16;96507.25;;;25.14;46.72
40838;BME280;29632;49.168;9.848;2022-08-18T01:24:43;96502.00;;;25.19;46.49
40838;BME280;29632;49.168;9.848;2022-08-18T01:27:38;96494.03;;;25.19;46.51
40838;BME280;29632;49.168;9.848;2022-08-18T01:30:12;96489.25;;;25.21;46.94
40838;BME280;29632;49.168;9.848;2022-08-18T01:32:39;96485.31;;;25.24;46.73
40838;BME280;29632;49.168;9.848;2022-08-18T01:35:08;96482.63;;;25.24;46.93
40838;BME280;29632;49.168;9.848;2022-08-18T01:37:36;96470.97;;;25.25;46.75
40838;BME280;29632;49.168;9.848;2022-08-18T01:40:08;96478.44;;;25.28;47.15
40838;BME280;29632;49.168;9.848;2022-08-18T01:42:36;96464.97;;;25.35;46.87
40838;BME280;29632;49.168;9.848;2022-08-18T01:45:04;96461.56;;;25.39;46.94
40838;BME280;29632;49.168;9.848;2022-08-18T01:47:33;96459.22;;;25.43;46.73
40838;BME280;29632;49.168;9.848;2022-08-18T01:50:00;96466.44;;;25.48;46.65
40838;BME280;29632;49.168;9.848;2022-08-18T01:52:27;96451.03;;;25.50;46.95
40838;BME280;29632;49.168;9.848;2022-08-18T01:54:54;96452.16;;;25.54;47.05
40838;BME280;29632;49.168;9.848;2022-08-18T01:57:23;96450.84;;;25.56;47.18
40838;BME280;29632;49.168;9.848;2022-08-18T01:59:49;96441.00;;;25.57;47.02
40838;BME280;29632;49.168;9.848;2022-08-18T02:02:21;96440.75;;;25.58;47.16
40838;BME280;29632;49.168;9.848;2022-08-18T02:04:52;96438.34;;;25.57;47.10
40838;BME280;29632;49.168;9.848;2022-08-18T02:07:21;96445.00;;;25.59;47.20
40838;BME280;29632;49.168;9.848;2022-08-18T02:09:47;96441.78;;;25.57;47.11
40838;BME280;29632;49.168;9.848;2022-08-18T02:12:13;96439.38;;;25.56;47.47
40838;BME280;29632;49.168;9.848;2022-08-18T02:14:39;96436.72;;;25.56;47.38
40838;BME280;29632;49.168;9.848;2022-08-18T02:17:08;96436.72;;;25.56;47.73
40838;BME280;29632;49.168;9.848;2022-08-18T02:19:43;96423.63;;;25.54;47.50
40838;BME280;29632;49.168;9.848;2022-08-18T02:22:13;96430.59;;;25.55;47.43
40838;BME280;29632;49.168;9.848;2022-08-18T02:24:39;96425.25;;;25.55;47.42
40838;BME280;29632;49.168;9.848;2022-08-18T02:27:06;96423.13;;;25.57;47.53
40838;BME280;29632;49.168;9.848;2022-08-18T02:29:33;96415.38;;;25.56;47.67
40838;BME280;29632;49.168;9.848;2022-08-18T02:31:59;96413.78;;;25.55;47.70
40838;BME280;29632;49.168;9.848;2022-08-18T02:34:25;96411.63;;;25.52;47.51
40838;BME280;29632;49.168;9.848;2022-08-18T02:36:50;96411.63;;;25.52;47.49
40838;BME280;29632;49.168;9.848;2022-08-18T02:39:17;96411.63;;;25.52;47.64
40838;BME280;29632;49.168;9.848;2022-08-18T02:41:43;96408.88;;;25.47;47.92
40838;BME280;29632;49.168;9.848;2022-08-18T02:44:08;96404.84;;;25.44;47.93
40838;BME280;29632;49.168;9.848;2022-08-18T02:46:35;96403.31;;;25.48;47.73
40838;BME280;29632;49.168;9.848;2022-08-18T02:49:04;96402.06;;;25.56;47.79
40838;BME280;29632;49.168;9.848;2022-08-18T02:51:30;96391.69;;;25.59;47.83
40838;BME280;29632;49.168;9.848;2022-08-18T02:53:56;96388.00;;;25.60;47.52
40838;BME280;29632;49.168;9.848;2022-08-18T02:56:29;96376.00;;;25.63;47.72
40838;BME280;29632;49.168;9.848;2022-08-18T02:59:00;96379.44;;;25.58;47.34
40838;BME280;29632;49.168;9.848;2022-08-18T03:01:32;96372.78;;;25.61;47.35
40838;BME280;29632;49.168;9.848;2022-08-18T03:03:59;96369.63;;;25.64;47.48
40838;BME280;29632;49.168;9.848;2022-08-18T03:06:27;96370.66;;;25.63;47.65
40838;BME280;29632;49.168;9.848;2022-08-18T03:08:54;96359.22;;;25.62;47.82
40838;BME280;29632;49.168;9.848;2022-08-18T03:11:27;96367.69;;;25.59;47.95
40838;BME280;29632;49.168;9.848;2022-08-18T03:13:55;96358.91;;;25.59;47.81
40838;BME280;29632;49.168;9.848;2022-08-18T03:16:22;96355.94;;;25.55;47.93
40838;BME280;29632;49.168;9.848;2022-08-18T03:18:52;96358.06;;;25.53;47.93
40838;BME280;29632;49.168;9.848;2022-08-18T03:21:23;96355.63;;;25.52;47.90
40838;BME280;29632;49.168;9.848;2022-08-18T03:23:50;96361.44;;;25.49;47.89
40838;BME280;29632;49.168;9.848;2022-08-18T03:26:19;96370.75;;;25.46;48.34
40838;BME280;29632;49.168;9.848;2022-08-18T03:28:49;96373.44;;;25.46;47.94
40838;BME280;29632;49.168;9.848;2022-08-18T03:31:17;96379.81;;;25.45;48.12
40838;BME280;29632;49.168;9.848;2022-08-18T03:33:44;96384.59;;;25.43;47.98
40838;BME280;29632;49.168;9.848;2022-08-18T03:36:15;96385.06;;;25.40;48.02
40838;BME280;29632;49.168;9.848;2022-08-18T03:38:44;96381.84;;;25.38;48.43
40838;BME280;29632;49.168;9.848;2022-08-18T03:41:12;96393.81;;;25.35;48.26
40838;BME280;29632;49.168;9.848;2022-08-18T03:43:39;96400.19;;;25.34;48.26
40838;BME280;29632;49.168;9.848;2022-08-18T03:46:10;96404.16;;;25.32;48.47
40838;BME280;29632;49.168;9.848;2022-08-18T03:48:38;96404.97;;;25.32;48.53
40838;BME280;29632;49.168;9.848;2022-08-18T03:51:08;96403.59;;;25.30;48.43
40838;BME280;29632;49.168;9.848;2022-08-18T03:53:36;96396.91;;;25.27;48.43
40838;BME280;29632;49.168;9.848;2022-08-18T03:56:11;96407.03;;;25.25;48.87
40838;BME280;29632;49.168;9.848;2022-08-18T03:58:46;96406.75;;;25.27;48.51
40838;BME280;29632;49.168;9.848;2022-08-18T04:01:18;96405.16;;;25.25;48.50
40838;BME280;29632;49.168;9.848;2022-08-18T04:03:49;96403.19;;;25.21;49.01
40838;BME280;29632;49.168;9.848;2022-08-18T04:06:23;96416.44;;;25.16;48.97
40838;BME280;29632;49.168;9.848;2022-08-18T04:09:01;96413.16;;;25.09;49.24
40838;BME280;29632;49.168;9.848;2022-08-18T04:11:27;96407.03;;;25.08;49.03
40838;BME280;29632;49.168;9.848;2022-08-18T04:13:56;96402.50;;;25.09;49.16
40838;BME280;29632;49.168;9.848;2022-08-18T04:16:27;96397.72;;;25.11;48.82
40838;BME280;29632;49.168;9.848;2022-08-18T04:18:53;96406.53;;;25.11;48.74
40838;BME280;29632;49.168;9.848;2022-08-18T04:21:20;96413.16;;;25.09;48.96
40838;BME280;29632;49.168;9.848;2022-08-18T04:23:48;96411.56;;;25.08;49.21
40838;BME280;29632;49.168;9.848;2022-08-18T04:26:14;96411.56;;;25.08;49.03
40838;BME280;29632;49.168;9.848;2022-08-18T04:28:42;96407.03;;;25.08;49.22
40838;BME280;29632;49.168;9.848;2022-08-18T04:31:12;96406.78;;;25.10;49.28
40838;BME280;29632;49.168;9.848;2022-08-18T04:33:39;96401.22;;;25.11;48.88
40838;BME280;29632;49.168;9.848;2022-08-18T04:36:12;96397.97;;;25.09;49.43
40838;BME280;29632;49.168;9.848;2022-08-18T04:38:39;96393.47;;;25.10;48.96
40838;BME280;29632;49.168;9.848;2022-08-18T04:41:08;96392.38;;;25.11;49.40
40838;BME280;29632;49.168;9.848;2022-08-18T04:43:34;96389.72;;;25.11;49.09
40838;BME280;29632;49.168;9.848;2022-08-18T04:46:00;96393.47;;;25.10;48.95
40838;BME280;29632;49.168;9.848;2022-08-18T04:48:35;96387.56;;;25.08;49.28
40838;BME280;29632;49.168;9.848;2022-08-18T04:53:31;96396.44;;;25.13;49.20
40838;BME280;29632;49.168;9.848;2022-08-18T04:56:35;96392.94;;;25.13;49.20
40838;BME280;29632;49.168;9.848;2022-08-18T04:59:10;96395.94;;;25.16;49.05
40838;BME280;29632;49.168;9.848;2022-08-18T05:01:40;96403.19;;;25.21;49.12
40838;BME280;29632;49.168;9.848;2022-08-18T05:04:07;96403.50;;;25.24;49.11
40838;BME280;29632;49.168;9.848;2022-08-18T05:06:35;96404.56;;;25.23;48.97
40838;BME280;29632;49.168;9.848;2022-08-18T05:09:06;96402.50;;;25.25;49.12
40838;BME280;29632;49.168;9.848;2022-08-18T05:11:40;96415.56;;;25.27;48.98
40838;BME280;29632;49.168;9.848;2022-08-18T05:14:08;96416.59;;;25.26;48.99
40838;BME280;29632;49.168;9.848;2022-08-18T05:16:36;96411.84;;;25.28;49.10
40838;BME280;29632;49.168;9.848;2022-08-18T05:19:07;96424.34;;;25.28;49.08
40838;BME280;29632;49.168;9.848;2022-08-18T05:21:34;96421.69;;;25.28;49.07
40838;BME280;29632;49.168;9.848;2022-08-18T05:24:02;96429.44;;;25.29;48.94
40838;BME280;29632;49.168;9.848;2022-08-18T05:26:29;96429.22;;;25.31;48.85
40838;BME280;29632;49.168;9.848;2022-08-18T05:28:55;96420.72;;;25.34;49.09
40838;BME280;29632;49.168;9.848;2022-08-18T05:31:24;96433.53;;;25.37;48.76
40838;BME280;29632;49.168;9.848;2022-08-18T05:33:51;96437.34;;;25.41;49.14
40838;BME280;29632;49.168;9.848;2022-08-18T05:36:37;96436.50;;;25.40;48.92
40838;BME280;29632;49.168;9.848;2022-08-18T05:39:57;96438.06;;;25.36;49.09
40838;BME280;29632;49.168;9.848;2022-08-18T05:42:26;96436.72;;;25.34;48.97
40838;BME280;29632;49.168;9.848;2022-08-18T05:44:55;96432.66;;;25.31;49.26
40838;BME280;29632;49.168;9.848;2022-08-18T05:47:30;96433.16;;;25.28;49.37
40838;BME280;29632;49.168;9.848;2022-08-18T05:50:13;96428.06;;;25.27;49.30
40838;BME280;29632;49.168;9.848;2022-08-18T05:52:58;96428.88;;;25.27;49.50
40838;BME280;29632;49.168;9.848;2022-08-18T05:55:39;96422.41;;;25.23;49.61
40838;BME280;29632;49.168;9.848;2022-08-18T05:58:31;96417.56;;;25.20;49.36
40838;BME280;29632;49.168;9.848;2022-08-18T06:01:06;96414.09;;;25.19;49.51
40838;BME280;29632;49.168;9.848;2022-08-18T06:03:59;96425.25;;;25.16;49.66
40838;BME280;29632;49.168;9.848;2022-08-18T06:06:27;96437.50;;;25.17;49.86
40838;BME280;29632;49.168;9.848;2022-08-18T06:09:08;96437.50;;;25.17;49.43
40838;BME280;29632;49.168;9.848;2022-08-18T06:11:35;96436.53;;;25.23;49.24
40838;BME280;29632;49.168;9.848;2022-08-18T06:14:00;96429.94;;;25.26;49.59
40838;BME280;29632;49.168;9.848;2022-08-18T06:16:51;96434.69;;;25.24;49.64
40838;BME280;29632;49.168;9.848;2022-08-18T06:19:50;96429.94;;;25.26;49.52
40838;BME280;29632;49.168;9.848;2022-08-18T06:22:35;96439.44;;;25.22;49.77
40838;BME280;29632;49.168;9.848;2022-08-18T06:28:15;96453.81;;;25.21;49.51
40838;BME280;29632;49.168;9.848;2022-08-18T06:36:27;96479.50;;;25.10;49.55
40838;BME280;29632;49.168;9.848;2022-08-18T06:39:45;96477.00;;;25.03;49.60
40838;BME280;29632;49.168;9.848;2022-08-18T06:42:14;96485.22;;;25.02;49.31
40838;BME280;29632;49.168;9.848;2022-08-18T06:44:49;96489.69;;;24.96;49.65
40838;BME280;29632;49.168;9.848;2022-08-18T06:47:44;96488.00;;;24.90;49.68
40838;BME280;29632;49.168;9.848;2022-08-18T06:50:31;96492.25;;;24.91;49.40
40838;BME280;29632;49.168;9.848;2022-08-18T06:53:03;96487.56;;;24.98;49.43
40838;BME280;29632;49.168;9.848;2022-08-18T06:55:41;96489.75;;;25.01;49.49
40838;BME280;29632;49.168;9.848;2022-08-18T07:00:54;96474.09;;;25.05;49.41
40838;BME280;29632;49.168;9.848;2022-08-18T07:03:48;96474.19;;;25.10;49.35
40838;BME280;29632;49.168;9.848;2022-08-18T07:08:50;96469.00;;;25.20;49.63
40838;BME280;29632;49.168;9.848;2022-08-18T07:11:28;96471.44;;;25.22;49.53
40838;BME280;29632;49.168;9.848;2022-08-18T07:14:12;96479.97;;;25.24;49.44
40838;BME280;29632;49.168;9.848;2022-08-18T07:16:38;96479.53;;;25.27;49.34
40838;BME280;29632;49.168;9.848;2022-08-18T07:19:17;96483.78;;;25.28;49.53
40838;BME280;29632;49.168;9.848;2022-08-18T07:22:11;96476.09;;;25.32;49.59
40838;BME280;29632;49.168;9.848;2022-08-18T07:24:51;96474.34;;;25.37;49.44
40838;BME280;29632;49.168;9.848;2022-08-18T07:27:43;96469.31;;;25.41;49.32
40838;BME280;29632;49.168;9.848;2022-08-18T07:30:28;96464.31;;;25.44;49.34
40838;BME280;29632;49.168;9.848;2022-08-18T07:33:21;96463.78;;;25.48;49.34
40838;BME280;29632;49.168;9.848;2022-08-18T07:35:53;96460.16;;;25.54;48.91
40838;BME280;29632;49.168;9.848;2022-08-18T07:38:33;96471.38;;;25.56;48.77
40838;BME280;29632;49.168;9.848;2022-08-18T07:47:06;96465.00;;;25.57;48.81
40838;BME280;29632;49.168;9.848;2022-08-18T07:49:36;96468.22;;;25.59;48.76
40838;BME280;29632;49.168;9.848;2022-08-18T07:52:30;96453.84;;;25.60;48.69
40838;BME280;29632;49.168;9.848;2022-08-18T07:55:29;96446.94;;;25.64;48.75
40838;BME280;29632;49.168;9.848;2022-08-18T07:58:18;96442.47;;;25.70;48.48
40838;BME280;29632;49.168;9.848;2022-08-18T08:01:10;96444.41;;;25.74;48.50
40838;BME280;29632;49.168;9.848;2022-08-18T08:06:41;96455.75;;;25.87;48.28
40838;BME280;29632;49.168;9.848;2022-08-18T08:15:39;96449.78;;;26.02;47.94
40838;BME280;29632;49.168;9.848;2022-08-18T08:18:20;96468.22;;;26.03;48.08
40838;BME280;29632;49.168;9.848;2022-08-18T08:20:55;96475.72;;;26.06;48.25
40838;BME280;29632;49.168;9.848;2022-08-18T08:26:40;96485.66;;;26.11;47.83
40838;BME280;29632;49.168;9.848;2022-08-18T08:32:14;96486.22;;;26.13;47.71
40838;BME280;29632;49.168;9.848;2022-08-18T08:34:56;96479.75;;;26.09;48.07
40838;BME280;29632;49.168;9.848;2022-08-18T08:37:32;96475.47;;;26.08;48.04
40838;BME280;29632;49.168;9.848;2022-08-18T08:40:17;96478.94;;;26.08;47.97
40838;BME280;29632;49.168;9.848;2022-08-18T08:43:00;96487.19;;;26.07;48.24
40838;BME280;29632;49.168;9.848;2022-08-18T08:45:36;96494.41;;;26.06;48.24
40838;BME280;29632;49.168;9.848;2022-08-18T08:48:24;96502.66;;;26.05;48.21
40838;BME280;29632;49.168;9.848;2022-08-18T08:53:42;96511.75;;;26.09;47.81
40838;BME280;29632;49.168;9.848;2022-08-18T08:56:13;96526.44;;;26.06;48.18
40838;BME280;29632;49.168;9.848;2022-08-18T08:59:06;96518.75;;;25.93;48.21
40838;BME280;29632;49.168;9.848;2022-08-18T09:05:17;96516.31;;;25.86;48.33
40838;BME280;29632;49.168;9.848;2022-08-18T09:23:10;96484.13;;;26.42;48.24
40838;BME280;29632;49.168;9.848;2022-08-18T09:39:31;96433.13;;;27.13;47.29
40838;BME280;29632;49.168;9.848;2022-08-18T09:45:07;96413.31;;;27.47;47.08
40838;BME280;29632;49.168;9.848;2022-08-18T09:57:32;96447.72;;;27.91;46.00
40838;BME280;29632;49.168;9.848;2022-08-18T10:08:24;96448.81;;;28.00;45.84
40838;BME280;29632;49.168;9.848;2022-08-18T10:11:03;96447.75;;;28.01;45.94
40838;BME280;29632;49.168;9.848;2022-08-18T10:16:32;96458.78;;;28.15;45.82
40838;BME280;29632;49.168;9.848;2022-08-18T10:24:53;96449.16;;;28.35;45.51
40838;BME280;29632;49.168;9.848;2022-08-18T10:33:11;96419.47;;;28.62;45.05
40838;BME280;29632;49.168;9.848;2022-08-18T10:38:45;96402.34;;;28.78;44.68
40838;BME280;29632;49.168;9.848;2022-08-18T10:41:29;96400.97;;;28.91;44.74
40838;BME280;29632;49.168;9.848;2022-08-18T10:43:58;96403.88;;;29.05;44.32
40838;BME280;29632;49.168;9.848;2022-08-18T10:46:34;96405.22;;;29.18;44.17
40838;BME280;29632;49.168;9.848;2022-08-18T10:49:21;96388.84;;;29.30;44.00
40838;BME280;29632;49.168;9.848;2022-08-18T10:54:54;96376.97;;;29.51;43.63
40838;BME280;29632;49.168;9.848;2022-08-18T11:00:19;96369.91;;;29.76;42.96
40838;BME280;29632;49.168;9.848;2022-08-18T11:03:59;96354.28;;;29.83;42.58
40838;BME280;29632;49.168;9.848;2022-08-18T11:05:51;96335.97;;;29.96;43.05
40838;BME280;29632;49.168;9.848;2022-08-18T11:08:24;96332.09;;;30.07;42.81
40838;BME280;29632;49.168;9.848;2022-08-18T11:10:50;96343.81;;;30.21;42.11
40838;BME280;29632;49.168;9.848;2022-08-18T11:14:03;96365.75;;;30.34;42.22
40838;BME280;29632;49.168;9.848;2022-08-18T11:16:49;96381.75;;;30.49;41.71
40838;BME280;29632;49.168;9.848;2022-08-18T11:19:20;96379.50;;;30.61;41.73
40838;BME280;29632;49.168;9.848;2022-08-18T11:21:49;96361.94;;;30.74;41.41
40838;BME280;29632;49.168;9.848;2022-08-18T11:24:29;96369.63;;;30.86;41.16
40838;BME280;29632;49.168;9.848;2022-08-18T11:27:25;96372.75;;;30.98;41.00
40838;BME280;29632;49.168;9.848;2022-08-18T11:29:52;96367.53;;;31.07;40.27
40838;BME280;29632;49.168;9.848;2022-08-18T11:32:32;96362.34;;;31.16;40.01
40838;BME280;29632;49.168;9.848;2022-08-18T11:39:58;96360.34;;;31.51;39.23
40838;BME280;29632;49.168;9.848;2022-08-18T11:42:38;96351.09;;;31.57;39.08
40838;BME280;29632;49.168;9.848;2022-08-18T11:45:19;96361.50;;;31.64;38.53
40838;BME280;29632;49.168;9.848;2022-08-18T11:53:49;96351.84;;;31.81;38.16
40838;BME280;29632;49.168;9.848;2022-08-18T11:58:49;96366.16;;;31.96;37.91
40838;BME280;29632;49.168;9.848;2022-08-18T12:06:55;96358.38;;;32.13;37.36
40838;BME280;29632;49.168;9.848;2022-08-18T12:09:46;96353.53;;;32.15;37.01
40838;BME280;29632;49.168;9.848;2022-08-18T12:12:26;96349.72;;;32.16;36.83
40838;BME280;29632;49.168;9.848;2022-08-18T12:17:40;96340.41;;;32.28;36.57
40838;BME280;29632;49.168;9.848;2022-08-18T12:20:08;96331.34;;;32.37;36.67
40838;BME280;29632;49.168;9.848;2022-08-18T12:22:36;96331.16;;;32.48;36.47
40838;BME280;29632;49.168;9.848;2022-08-18T12:25:06;96332.69;;;32.54;36.32
40838;BME280;29632;49.168;9.848;2022-08-18T12:27:33;96327.00;;;32.55;36.00
40838;BME280;29632;49.168;9.848;2022-08-18T12:30:00;96304.34;;;32.56;35.91
40838;BME280;29632;49.168;9.848;2022-08-18T12:32:29;96296.75;;;32.59;35.69
40838;BME280;29632;49.168;9.848;2022-08-18T12:34:55;96306.69;;;32.63;35.83
40838;BME280;29632;49.168;9.848;2022-08-18T12:37:24;96310.56;;;32.71;35.64
40838;BME280;29632;49.168;9.848;2022-08-18T12:39:51;96315.28;;;32.79;35.19
40838;BME280;29632;49.168;9.848;2022-08-18T12:42:18;96309.00;;;32.84;35.16
40838;BME280;29632;49.168;9.848;2022-08-18T12:44:45;96305.19;;;32.85;35.06
40838;BME280;29632;49.168;9.848;2022-08-18T12:47:19;96301.41;;;32.86;34.82
40838;BME280;29632;49.168;9.848;2022-08-18T12:49:47;96297.81;;;32.90;34.93
40838;BME280;29632;49.168;9.848;2022-08-18T12:52:13;96292.44;;;32.90;34.76
40838;BME280;29632;49.168;9.848;2022-08-18T12:54:39;96293.44;;;32.95;34.43
40838;BME280;29632;49.168;9.848;2022-08-18T12:57:12;96299.00;;;32.98;34.52
40838;BME280;29632;49.168;9.848;2022-08-18T12:59:42;96287.34;;;33.03;34.74
40838;BME280;29632;49.168;9.848;2022-08-18T13:02:08;96275.31;;;33.09;34.60
40838;BME280;29632;49.168;9.848;2022-08-18T13:04:36;96266.88;;;33.16;34.30
40838;BME280;29632;49.168;9.848;2022-08-18T13:07:01;96257.25;;;33.23;34.42
40838;BME280;29632;49.168;9.848;2022-08-18T13:09:31;96244.47;;;33.29;34.16
40838;BME280;29632;49.168;9.848;2022-08-18T13:11:57;96238.44;;;33.32;34.02
40838;BME280;29632;49.168;9.848;2022-08-18T13:14:23;96225.66;;;33.38;34.14
40838;BME280;29632;49.168;9.848;2022-08-18T13:16:48;96230.44;;;33.41;33.71
40838;BME280;29632;49.168;9.848;2022-08-18T13:19:16;96225.22;;;33.44;33.38
40838;BME280;29632;49.168;9.848;2022-08-18T13:21:41;96220.81;;;33.48;33.28
40838;BME280;29632;49.168;9.848;2022-08-18T13:24:08;96222.59;;;33.53;33.06
40838;BME280;29632;49.168;9.848;2022-08-18T13:26:40;96220.25;;;33.60;32.99
40838;BME280;29632;49.168;9.848;2022-08-18T13:29:06;96224.47;;;33.66;33.20
40838;BME280;29632;49.168;9.848;2022-08-18T13:31:32;96224.84;;;33.74;32.96
40838;BME280;29632;49.168;9.848;2022-08-18T13:33:58;96222.50;;;33.81;32.53
40838;BME280;29632;49.168;9.848;2022-08-18T13:36:27;96220.81;;;33.85;32.28
40838;BME280;29632;49.168;9.848;2022-08-18T13:41:39;96221.16;;;33.92;32.25
40838;BME280;29632;49.168;9.848;2022-08-18T13:44:06;96233.72;;;33.97;32.06
40838;BME280;29632;49.168;9.848;2022-08-18T13:46:32;96229.03;;;34.02;32.31
40838;BME280;29632;49.168;9.848;2022-08-18T13:48:58;96222.50;;;34.03;32.12
40838;BME280;29632;49.168;9.848;2022-08-18T13:51:26;96234.91;;;34.04;31.87
40838;BME280;29632;49.168;9.848;2022-08-18T13:53:52;96228.38;;;34.05;32.20
40838;BME280;29632;49.168;9.848;2022-08-18T13:56:18;96225.06;;;34.09;32.01
40838;BME280;29632;49.168;9.848;2022-08-18T13:58:45;96223.34;;;34.13;31.50
40838;BME280;29632;49.168;9.848;2022-08-18T14:01:11;96216.75;;;34.19;31.47
40838;BME280;29632;49.168;9.848;2022-08-18T14:03:38;96220.56;;;34.27;31.38
40838;BME280;29632;49.168;9.848;2022-08-18T14:06:04;96225.53;;;34.33;31.55
40838;BME280;29632;49.168;9.848;2022-08-18T14:08:30;96221.63;;;34.39;31.30
40838;BME280;29632;49.168;9.848;2022-08-18T14:10:59;96217.94;;;34.44;31.32
40838;BME280;29632;49.168;9.848;2022-08-18T14:13:26;96208.22;;;34.34;31.89
40838;BME280;29632;49.168;9.848;2022-08-18T14:15:54;96211.75;;;34.43;31.04
40838;BME280;29632;49.168;9.848;2022-08-18T14:18:22;96203.34;;;34.45;30.95
40838;BME280;29632;49.168;9.848;2022-08-18T14:20:48;96198.72;;;34.46;30.60
40838;BME280;29632;49.168;9.848;2022-08-18T14:23:33;96204.13;;;34.46;31.10
40838;BME280;29632;49.168;9.848;2022-08-18T14:26:17;96193.00;;;34.47;31.08
40838;BME280;29632;49.168;9.848;2022-08-18T14:29:01;96190.78;;;34.49;30.87
40838;BME280;29632;49.168;9.848;2022-08-18T14:31:28;96200.50;;;34.50;30.64
40838;BME280;29632;49.168;9.848;2022-08-18T14:33:54;96209.88;;;34.53;30.07
40838;BME280;29632;49.168;9.848;2022-08-18T14:36:20;96211.66;;;34.57;30.48
40838;BME280;29632;49.168;9.848;2022-08-18T14:38:46;96212.44;;;34.58;30.16
40838;BME280;29632;49.168;9.848;2022-08-18T14:41:12;96207.53;;;34.60;30.41
40838;BME280;29632;49.168;9.848;2022-08-18T14:43:39;96211.81;;;34.61;29.81
40838;BME280;29632;49.168;9.848;2022-08-18T14:46:06;96215.00;;;34.63;30.37
40838;BME280;29632;49.168;9.848;2022-08-18T14:48:32;96209.28;;;34.65;29.98
40838;BME280;29632;49.168;9.848;2022-08-18T14:50:58;96218.69;;;34.67;29.76
40838;BME280;29632;49.168;9.848;2022-08-18T14:53:29;96220.78;;;34.70;29.57
40838;BME280;29632;49.168;9.848;2022-08-18T14:55:56;96221.28;;;34.72;29.51
40838;BME280;29632;49.168;9.848;2022-08-18T14:58:25;96221.78;;;34.74;29.34
40838;BME280;29632;49.168;9.848;2022-08-18T15:01:10;96229.56;;;34.76;29.45
40838;BME280;29632;49.168;9.848;2022-08-18T15:03:38;96226.19;;;34.70;29.55
40838;BME280;29632;49.168;9.848;2022-08-18T15:06:06;96222.03;;;34.64;29.70
40838;BME280;29632;49.168;9.848;2022-08-18T15:08:37;96227.25;;;34.60;29.46
40838;BME280;29632;49.168;9.848;2022-08-18T15:11:05;96237.59;;;34.58;29.59
40838;BME280;29632;49.168;9.848;2022-08-18T15:13:31;96235.19;;;34.57;29.63
40838;BME280;29632;49.168;9.848;2022-08-18T15:15:58;96225.00;;;34.54;29.99
40838;BME280;29632;49.168;9.848;2022-08-18T15:18:24;96231.84;;;34.51;29.88
40838;BME280;29632;49.168;9.848;2022-08-18T15:20:51;96225.13;;;34.49;29.47
40838;BME280;29632;49.168;9.848;2022-08-18T15:23:35;96225.59;;;34.42;29.41
40838;BME280;29632;49.168;9.848;2022-08-18T15:26:24;96220.97;;;34.34;29.62
40838;BME280;29632;49.168;9.848;2022-08-18T15:28:51;96216.66;;;34.33;29.74
40838;BME280;29632;49.168;9.848;2022-08-18T15:31:16;96220.44;;;34.32;29.71
40838;BME280;29632;49.168;9.848;2022-08-18T15:33:42;96220.44;;;34.32;30.21
40838;BME280;29632;49.168;9.848;2022-08-18T15:36:08;96217.44;;;34.33;29.82
40838;BME280;29632;49.168;9.848;2022-08-18T15:38:34;96214.72;;;34.33;29.92
40838;BME280;29632;49.168;9.848;2022-08-18T15:41:00;96210.47;;;34.32;30.04
40838;BME280;29632;49.168;9.848;2022-08-18T15:43:30;96206.16;;;34.31;29.98
40838;BME280;29632;49.168;9.848;2022-08-18T15:45:58;96205.66;;;34.29;30.05
40838;BME280;29632;49.168;9.848;2022-08-18T15:48:26;96205.66;;;34.29;30.05
40838;BME280;29632;49.168;9.848;2022-08-18T15:50:52;96211.06;;;34.29;29.90